createdAt,value
2022-10-11T01:53:38.142Z,92.09
2022-10-11T01:56:18.928Z,92.38
2022-10-11T01:58:51.601Z,90.68
2022-10-11T02:01:42.882Z,92.31
2022-10-11T02:04:25.768Z,92.45
2022-10-11T02:07:10.508Z,90.75
2022-10-11T02:10:07.667Z,90.23
2022-10-11T02:12:40.117Z,91.89
2022-10-11T02:15:09.678Z,92.07
2022-10-11T02:17:48.529Z,91.15
2022-10-11T02:20:20.104Z,90.57
2022-10-11T02:22:50.093Z,92.10
2022-10-11T02:25:40.154Z,92.13
2022-10-11T02:28:11.684Z,93.69
2022-10-11T02:30:42.490Z,93.40
2022-10-11T02:33:13.485Z,95.61
2022-10-11T02:35:45.669Z,92.34
2022-10-11T02:38:22.128Z,92.07
2022-10-11T02:40:56.747Z,91.06
2022-10-11T02:43:48.527Z,91.94
2022-10-11T02:46:17.763Z,92.11
2022-10-11T02:48:44.314Z,93.34
2022-10-11T02:51:14.690Z,91.97
2022-10-11T02:53:41.195Z,93.72
2022-10-11T02:56:08.190Z,94.22
2022-10-11T02:58:35.427Z,94.75
2022-10-11T03:01:02.049Z,94.85
2022-10-11T03:03:28.735Z,94.61
2022-10-11T03:05:59.639Z,92.23
2022-10-11T03:08:26.536Z,93.07
2022-10-11T03:10:53.078Z,92.45
2022-10-11T03:13:20.022Z,92.23
2022-10-11T03:16:02.325Z,91.17
2022-10-11T03:18:37.159Z,91.21
2022-10-11T03:21:04.005Z,91.64
2022-10-11T03:23:39.954Z,92.52
2022-10-11T03:26:07.058Z,94.12
2022-10-11T03:28:34.089Z,94.08
2022-10-11T03:31:00.681Z,93.06
2022-10-11T03:33:27.228Z,95.38
2022-10-11T03:35:56.975Z,95.92
2022-10-11T03:38:23.723Z,95.14
2022-10-11T03:40:50.325Z,93.25
2022-10-11T03:43:17.380Z,95.77
2022-10-11T03:45:43.995Z,93.69
2022-10-11T03:48:15.114Z,93.19
2022-10-11T03:50:41.769Z,92.60
2022-10-11T03:53:08.728Z,93.80
2022-10-11T03:55:35.552Z,93.22
2022-10-11T03:58:02.087Z,93.33
2022-10-11T04:00:28.761Z,93.70
2022-10-11T04:02:55.186Z,92.30
2022-10-11T04:05:21.708Z,93.27
2022-10-11T04:07:48.541Z,93.99
2022-10-11T04:10:14.974Z,94.05
2022-10-11T04:12:41.526Z,94.33
2022-10-11T04:15:08.500Z,93.69
2022-10-11T04:17:34.984Z,92.45
2022-10-11T04:20:01.542Z,92.43
2022-10-11T04:22:27.983Z,92.97
2022-10-11T04:24:54.562Z,92.10
2022-10-11T04:27:21.472Z,91.02
2022-10-11T04:29:47.906Z,92.47
2022-10-11T04:32:14.439Z,93.26
2022-10-11T04:34:41.068Z,93.61
2022-10-11T04:37:07.563Z,92.88
2022-10-11T04:39:34.233Z,92.21
2022-10-11T04:42:00.666Z,92.02
2022-10-11T04:44:27.181Z,94.38
2022-10-11T04:46:53.788Z,94.47
2022-10-11T04:49:22.122Z,92.73
2022-10-11T04:51:48.812Z,93.52
2022-10-11T04:54:18.078Z,93.28
2022-10-11T05:46:09.427Z,96.58
2022-10-11T05:48:36.390Z,96.67
2022-10-11T05:51:24.897Z,97.18
2022-10-11T14:04:01.800Z,55.00
2022-10-11T14:09:54.829Z,52.54
2022-10-11T14:12:39.702Z,50.00
2022-10-11T14:15:29.761Z,49.84
2022-10-11T14:18:34.280Z,50.53
2022-10-11T14:21:24.922Z,51.55
2022-10-11T14:24:19.823Z,49.75
2022-10-11T14:26:56.459Z,52.54
2022-10-11T14:36:22.785Z,52.33
2022-10-11T14:39:21.363Z,51.67
2022-10-11T14:41:48.693Z,53.11
2022-10-11T14:44:20.139Z,54.25
2022-10-11T14:46:48.247Z,53.29
2022-10-11T14:49:19.126Z,56.56
2022-10-11T14:51:48.313Z,58.13
2022-10-11T14:54:16.443Z,57.40
2022-10-11T14:56:42.973Z,55.88
2022-10-11T14:59:14.620Z,54.96
2022-10-11T15:01:41.293Z,51.73
2022-10-11T15:04:10.399Z,52.24
2022-10-11T15:06:43.961Z,51.95
2022-10-11T15:09:12.711Z,53.00
2022-10-11T15:11:39.876Z,51.69
2022-10-11T15:14:09.930Z,51.67
2022-10-11T15:17:52.457Z,53.08
2022-10-11T15:20:27.088Z,52.01
2022-10-11T15:23:02.601Z,59.61
2022-10-11T15:25:35.031Z,61.97
2022-10-11T15:29:17.005Z,61.32
2022-10-11T15:31:37.339Z,65.93
2022-10-11T15:35:15.378Z,64.23
2022-10-11T15:38:26.578Z,64.75
2022-10-11T15:48:43.863Z,67.99
2022-10-11T16:11:18.195Z,71.36
2022-10-11T16:25:36.739Z,72.47
2022-10-11T16:28:00.745Z,72.39
2022-10-11T16:33:32.363Z,74.34
2022-10-11T16:36:21.257Z,73.33
2022-10-11T16:38:52.296Z,74.56
2022-10-11T16:41:22.086Z,74.73
2022-10-11T16:43:52.569Z,74.82
2022-10-11T16:46:20.093Z,76.69
2022-10-11T16:48:47.254Z,76.68
2022-10-11T16:51:14.124Z,76.42
2022-10-11T16:53:40.897Z,75.30
2022-10-11T16:56:08.538Z,75.91
2022-10-11T16:58:36.538Z,78.16
2022-10-11T17:01:11.236Z,77.92
2022-10-11T17:03:38.306Z,78.82
2022-10-11T17:06:06.225Z,80.94
2022-10-11T17:08:33.126Z,79.94
2022-10-11T17:11:09.487Z,78.57
2022-10-11T17:13:36.283Z,78.18
2022-10-11T17:16:07.339Z,79.15
2022-10-11T17:18:34.399Z,79.68
2022-10-11T17:21:05.152Z,78.54
2022-10-11T17:23:31.902Z,81.64
2022-10-11T17:26:28.859Z,80.27
2022-10-11T17:29:00.996Z,82.35
2022-10-11T17:31:29.022Z,80.69
2022-10-11T17:34:01.852Z,82.62
2022-10-11T17:36:44.183Z,81.93
2022-10-11T17:39:41.073Z,83.23
2022-10-11T17:55:16.563Z,85.66
2022-10-11T17:58:12.304Z,84.71
2022-10-11T18:01:20.960Z,88.23
2022-10-11T18:04:33.664Z,87.63
2022-10-11T18:14:32.053Z,88.48
